createdAt,value
2019-03-30T00:01:41.117Z,14.23
2019-03-30T00:04:13.103Z,14.50
2019-03-30T00:06:45.626Z,13.80
2019-03-30T00:09:17.761Z,13.97
2019-03-30T00:11:50.157Z,13.30
2019-03-30T00:14:22.299Z,13.10
2019-03-30T00:16:54.570Z,13.60
2019-03-30T00:19:34.894Z,14.17
2019-03-30T00:22:00.383Z,12.47
2019-03-30T00:24:32.601Z,14.23
2019-03-30T00:27:04.715Z,15.03
2019-03-30T00:29:36.860Z,13.57
2019-03-30T00:32:09.340Z,13.47
2019-03-30T00:34:42.470Z,13.00
2019-03-30T00:37:14.687Z,12.93
2019-03-30T00:39:47.143Z,13.67
2019-03-30T00:42:19.851Z,13.60
2019-03-30T00:44:52.226Z,13.40
2019-03-30T00:47:24.354Z,13.83
2019-03-30T00:49:56.425Z,13.47
2019-03-30T00:52:28.493Z,14.10
2019-03-30T00:55:00.818Z,13.53
2019-03-30T00:57:32.882Z,13.67
2019-03-30T01:00:07.022Z,13.70
2019-03-30T01:02:39.232Z,12.43
2019-03-30T01:05:11.458Z,13.30
2019-03-30T01:07:43.617Z,13.63
2019-03-30T01:10:16.231Z,13.40
2019-03-30T01:12:48.292Z,12.97
2019-03-30T01:15:20.503Z,13.77
2019-03-30T01:17:52.715Z,13.83
2019-03-30T01:20:24.846Z,13.43
2019-03-30T01:22:57.310Z,13.53
2019-03-30T01:25:30.178Z,13.63
2019-03-30T01:28:02.264Z,13.20
2019-03-30T01:30:34.404Z,12.47
2019-03-30T01:33:06.619Z,12.23
2019-03-30T01:35:38.684Z,12.73
2019-03-30T01:38:11.114Z,12.47
2019-03-30T01:40:43.338Z,12.53
2019-03-30T01:43:15.419Z,11.87
2019-03-30T01:45:48.843Z,11.37
2019-03-30T01:48:20.971Z,11.20
2019-03-30T01:50:53.135Z,11.70
2019-03-30T01:53:26.501Z,11.10
2019-03-30T01:55:58.684Z,11.67
2019-03-30T01:58:30.737Z,11.67
2019-03-30T02:01:02.967Z,11.47
2019-03-30T02:03:35.291Z,11.90
2019-03-30T02:06:07.828Z,11.27
2019-03-30T02:08:39.888Z,10.63
2019-03-30T02:11:14.003Z,11.83
2019-03-30T02:13:46.906Z,12.30
2019-03-30T02:16:18.983Z,12.10
2019-03-30T02:18:51.381Z,12.43
2019-03-30T02:21:23.530Z,12.23
2019-03-30T02:23:55.658Z,12.03
2019-03-30T02:26:27.725Z,13.17
2019-03-30T02:28:59.922Z,12.70
2019-03-30T02:31:32.562Z,12.77
2019-03-30T02:34:04.619Z,12.53
2019-03-30T02:36:36.668Z,12.43
2019-03-30T02:39:09.763Z,13.70
2019-03-30T02:41:41.746Z,12.07
2019-03-30T02:44:14.488Z,13.43
2019-03-30T02:46:46.627Z,12.90
2019-03-30T02:49:18.748Z,12.20
2019-03-30T02:51:51.203Z,13.20
2019-03-30T02:54:23.583Z,13.17
2019-03-30T02:56:56.070Z,14.27
2019-03-30T02:59:28.049Z,12.70
2019-03-30T03:02:00.607Z,13.60
2019-03-30T03:04:32.804Z,14.50
2019-03-30T03:07:04.914Z,13.43
2019-03-30T03:09:37.413Z,13.10
2019-03-30T03:12:10.182Z,14.20
2019-03-30T03:14:42.322Z,13.60
2019-03-30T03:17:14.541Z,13.30
2019-03-30T03:19:46.912Z,13.87
2019-03-30T03:22:18.996Z,13.40
2019-03-30T03:24:51.052Z,14.27
2019-03-30T03:27:23.378Z,13.40
2019-03-30T03:29:55.727Z,13.20
2019-03-30T03:32:27.782Z,12.97
2019-03-30T03:34:59.833Z,13.73
2019-03-30T03:37:44.502Z,13.37
2019-03-30T03:40:09.541Z,13.63
2019-03-30T03:42:42.338Z,12.13
2019-03-30T03:45:14.556Z,12.70
2019-03-30T03:47:47.331Z,11.87
2019-03-30T03:50:45.978Z,11.80
2019-03-30T03:53:18.908Z,11.30
2019-03-30T03:55:53.466Z,12.07
2019-03-30T03:58:28.796Z,11.03
2019-03-30T04:01:02.987Z,12.30
2019-03-30T04:03:36.578Z,12.17
2019-03-30T04:06:09.643Z,11.43
2019-03-30T04:08:43.947Z,12.03
2019-03-30T04:11:18.695Z,11.50
2019-03-30T04:13:54.993Z,11.50
2019-03-30T04:16:27.170Z,11.63
2019-03-30T04:18:59.591Z,12.23
2019-03-30T04:21:43.879Z,12.00
2019-03-30T04:24:05.297Z,12.67
2019-03-30T04:26:37.254Z,12.10
2019-03-30T04:29:10.242Z,11.67
2019-03-30T04:31:42.667Z,12.67
2019-03-30T04:34:14.717Z,11.80
2019-03-30T04:36:46.669Z,12.93
2019-03-30T04:39:18.731Z,13.30
2019-03-30T04:41:50.826Z,13.30
2019-03-30T04:44:22.790Z,13.53
2019-03-30T04:46:55.103Z,12.93
2019-03-30T04:49:27.099Z,13.10
2019-03-30T04:51:59.466Z,13.17
2019-03-30T04:54:31.492Z,13.40
2019-03-30T04:57:03.574Z,13.77
2019-03-30T04:59:35.801Z,13.17
2019-03-30T05:02:07.766Z,14.40
2019-03-30T05:04:39.800Z,14.27
2019-03-30T05:07:12.175Z,14.10
2019-03-30T05:09:44.211Z,14.17
2019-03-30T05:12:16.252Z,14.23
2019-03-30T05:14:48.327Z,14.17
2019-03-30T05:17:20.827Z,14.00
2019-03-30T05:19:52.926Z,13.00
2019-03-30T05:22:24.983Z,12.75
2019-03-30T05:24:56.933Z,12.00
2019-03-30T05:27:29.431Z,14.50
2019-03-30T05:30:01.411Z,13.73
2019-03-30T05:32:33.341Z,14.00
2019-03-30T05:35:07.620Z,14.07
2019-03-30T05:37:40.206Z,14.57
2019-03-30T05:40:12.603Z,13.70
2019-03-30T05:42:44.664Z,13.67
2019-03-30T05:45:16.757Z,14.47
2019-03-30T05:47:48.718Z,14.30
2019-03-30T05:50:20.794Z,15.03
2019-03-30T05:52:52.759Z,14.80
2019-03-30T05:55:24.790Z,14.63
2019-03-30T05:57:56.756Z,16.20
2019-03-30T06:00:28.779Z,15.50
2019-03-30T06:03:00.751Z,16.40
2019-03-30T06:05:32.868Z,15.23
2019-03-30T06:08:05.157Z,15.87
2019-03-30T06:10:38.794Z,14.63
2019-03-30T06:13:11.280Z,15.83
2019-03-30T06:15:44.605Z,15.80
2019-03-30T06:18:16.946Z,15.70
2019-03-30T06:20:49.022Z,15.90
2019-03-30T06:23:21.036Z,15.43
2019-03-30T06:25:53.140Z,16.63
2019-03-30T06:28:25.122Z,16.37
2019-03-30T06:30:57.233Z,13.80
2019-03-30T06:33:29.301Z,13.70
2019-03-30T06:36:01.324Z,15.13
2019-03-30T06:38:33.362Z,15.70
2019-03-30T06:41:06.573Z,15.37
2019-03-30T06:43:38.672Z,15.30
2019-03-30T06:46:10.693Z,15.07
2019-03-30T06:48:42.771Z,15.30
2019-03-30T06:51:14.705Z,15.87
2019-03-30T06:53:47.167Z,15.70
2019-03-30T06:56:19.225Z,15.50
2019-03-30T06:58:51.247Z,14.77
2019-03-30T07:01:23.761Z,15.87
2019-03-30T07:03:56.389Z,16.13
2019-03-30T07:06:30.673Z,16.30
2019-03-30T07:09:05.657Z,16.10
2019-03-30T07:11:45.272Z,17.00
2019-03-30T07:14:17.441Z,17.33
2019-03-30T07:16:52.281Z,19.17
2019-03-30T07:19:28.842Z,19.20
2019-03-30T07:22:01.180Z,18.53
2019-03-30T07:24:33.255Z,18.57
2019-03-30T07:27:05.289Z,19.33
2019-03-30T07:29:37.349Z,18.63
2019-03-30T07:32:09.796Z,18.60
2019-03-30T07:34:42.015Z,18.93
2019-03-30T07:37:14.076Z,17.37
2019-03-30T07:39:46.132Z,19.07
2019-03-30T07:42:18.182Z,19.10
2019-03-30T07:44:50.369Z,18.87
2019-03-30T07:47:22.364Z,19.23
2019-03-30T07:49:55.185Z,20.00
2019-03-30T07:52:27.155Z,20.03
2019-03-30T07:55:00.474Z,21.47
2019-03-30T07:57:32.527Z,20.03
2019-03-30T08:00:05.036Z,20.20
2019-03-30T08:02:37.264Z,20.17
2019-03-30T08:05:10.056Z,21.30
2019-03-30T08:07:42.334Z,20.17
2019-03-30T08:10:15.084Z,19.53
2019-03-30T08:12:47.488Z,20.43
2019-03-30T08:15:19.602Z,19.43
2019-03-30T08:17:51.573Z,19.67
2019-03-30T08:20:24.759Z,20.03
2019-03-30T08:22:56.980Z,20.17
2019-03-30T08:25:29.072Z,20.73
2019-03-30T08:28:01.129Z,20.97
2019-03-30T08:30:33.195Z,20.43
2019-03-30T08:33:05.537Z,20.53
2019-03-30T08:35:37.705Z,20.57
2019-03-30T08:38:09.811Z,19.83
2019-03-30T08:40:42.164Z,20.30
2019-03-30T08:43:14.135Z,20.67
2019-03-30T08:45:48.922Z,20.30
2019-03-30T08:48:19.948Z,20.73
2019-03-30T08:50:52.425Z,19.83
2019-03-30T08:53:24.556Z,20.17
2019-03-30T08:55:56.664Z,20.90
2019-03-30T08:58:28.906Z,19.40
2019-03-30T09:01:01.094Z,19.93
2019-03-30T09:03:34.113Z,20.50
2019-03-30T09:06:06.486Z,21.13
2019-03-30T09:08:38.519Z,21.33
2019-03-30T09:11:10.671Z,20.57
2019-03-30T09:13:42.658Z,18.60
2019-03-30T09:16:14.614Z,18.97
2019-03-30T09:18:46.929Z,19.80
2019-03-30T09:21:18.984Z,19.87
2019-03-30T09:23:50.980Z,20.70
2019-03-30T09:26:23.515Z,18.63
2019-03-30T09:28:55.805Z,18.87
2019-03-30T09:31:27.921Z,18.13
2019-03-30T09:34:00.088Z,19.10
2019-03-30T09:36:32.272Z,18.13
2019-03-30T09:39:05.573Z,18.93
2019-03-30T09:41:37.624Z,19.47
2019-03-30T09:44:10.853Z,20.25
2019-03-30T09:46:43.178Z,20.13
2019-03-30T09:49:15.186Z,21.30
2019-03-30T09:51:47.577Z,20.10
2019-03-30T09:54:23.844Z,20.57
2019-03-30T09:56:54.403Z,19.40
2019-03-30T09:59:26.366Z,20.50
2019-03-30T10:01:58.640Z,20.75
2019-03-30T10:04:30.789Z,21.33
2019-03-30T10:07:02.858Z,21.90
2019-03-30T10:09:35.389Z,21.23
2019-03-30T10:12:09.055Z,19.52
2019-03-30T10:14:41.577Z,21.05
2019-03-30T10:17:13.640Z,20.92
2019-03-30T10:19:53.019Z,21.90
2019-03-30T10:22:19.558Z,19.80
2019-03-30T10:24:51.677Z,21.48
2019-03-30T10:27:23.790Z,21.50
2019-03-30T10:29:55.918Z,20.20
2019-03-30T10:32:28.002Z,20.00
2019-03-30T10:35:00.056Z,20.43
2019-03-30T10:37:32.118Z,21.27
2019-03-30T10:40:04.885Z,22.32
2019-03-30T10:42:37.042Z,20.65
2019-03-30T10:45:10.363Z,20.55
2019-03-30T10:47:42.757Z,18.80
2019-03-30T10:50:15.000Z,18.35
2019-03-30T10:52:47.152Z,20.25
2019-03-30T10:55:19.337Z,18.42
2019-03-30T10:57:51.456Z,18.77
2019-03-30T11:00:42.704Z,17.82
2019-03-30T11:03:14.880Z,16.10
2019-03-30T11:05:47.048Z,16.65
2019-03-30T11:08:19.682Z,16.27
2019-03-30T11:10:51.833Z,17.37
2019-03-30T11:13:23.983Z,17.25
2019-03-30T11:15:56.149Z,14.65
2019-03-30T11:18:28.226Z,16.62
2019-03-30T11:21:00.357Z,16.57
2019-03-30T11:23:32.425Z,16.23
2019-03-30T11:26:04.686Z,16.17
2019-03-30T11:28:36.696Z,16.67
2019-03-30T11:31:08.860Z,17.90
2019-03-30T11:33:41.180Z,16.15
2019-03-30T11:36:13.536Z,16.32
2019-03-30T11:38:46.116Z,15.83
2019-03-30T11:41:18.090Z,15.68
2019-03-30T11:43:50.138Z,15.83
2019-03-30T11:46:22.385Z,15.40
2019-03-30T11:48:54.557Z,15.55
2019-03-30T11:51:26.648Z,15.35
2019-03-30T11:53:59.090Z,15.85
2019-03-30T11:56:31.477Z,15.70
2019-03-30T11:59:03.468Z,15.72
2019-03-30T12:01:35.634Z,16.95
2019-03-30T12:04:07.713Z,15.60
2019-03-30T12:06:40.036Z,16.60
2019-03-30T12:09:13.021Z,17.10
2019-03-30T12:11:45.058Z,16.27
2019-03-30T12:14:17.057Z,15.43
2019-03-30T12:16:49.255Z,15.55
2019-03-30T12:19:21.473Z,16.75
2019-03-30T12:21:53.739Z,15.83
2019-03-30T12:24:26.042Z,14.28
2019-03-30T12:26:58.168Z,14.47
2019-03-30T12:29:30.258Z,14.95
2019-03-30T12:32:02.551Z,14.95
2019-03-30T12:34:34.760Z,15.40
2019-03-30T12:37:06.805Z,14.55
2019-03-30T12:39:38.965Z,13.78
2019-03-30T12:42:11.514Z,14.80
2019-03-30T12:44:43.674Z,15.05
2019-03-30T12:47:17.050Z,14.70
2019-03-30T12:49:49.121Z,15.25
2019-03-30T12:52:21.342Z,15.70
2019-03-30T12:54:53.573Z,15.28
2019-03-30T12:57:26.358Z,14.50
2019-03-30T12:59:59.807Z,15.13
2019-03-30T13:02:33.273Z,14.90
2019-03-30T13:07:40.688Z,15.20
2019-03-30T13:10:12.998Z,16.90
2019-03-30T13:12:44.976Z,15.90
2019-03-30T13:15:17.183Z,16.25
2019-03-30T13:17:49.248Z,15.80
2019-03-30T13:20:21.325Z,14.18
2019-03-30T13:22:53.281Z,14.60
2019-03-30T13:25:25.910Z,14.83
2019-03-30T13:27:58.277Z,15.20
2019-03-30T13:30:30.365Z,14.00
2019-03-30T13:33:02.934Z,14.18
2019-03-30T13:35:35.945Z,14.95
2019-03-30T13:38:08.062Z,14.75
2019-03-30T13:40:40.077Z,16.10
2019-03-30T13:43:12.613Z,15.15
2019-03-30T13:45:44.754Z,15.38
2019-03-30T13:48:16.892Z,13.60
2019-03-30T13:50:48.893Z,15.00
2019-03-30T13:53:20.956Z,14.20
2019-03-30T13:55:53.541Z,14.05
2019-03-30T13:58:25.716Z,16.50
2019-03-30T14:00:57.840Z,14.30
2019-03-30T14:03:29.963Z,14.68
2019-03-30T14:06:03.058Z,14.68
2019-03-30T14:08:35.033Z,14.35
2019-03-30T14:11:07.104Z,14.28
2019-03-30T14:13:39.205Z,13.85
2019-03-30T14:16:11.271Z,13.65
2019-03-30T14:18:43.932Z,14.00
2019-03-30T14:21:17.570Z,14.55
2019-03-30T14:23:49.975Z,13.98
2019-03-30T14:26:31.357Z,14.70
2019-03-30T14:28:55.844Z,14.58
2019-03-30T14:31:27.889Z,14.78
2019-03-30T14:33:59.979Z,13.70
2019-03-30T14:36:32.057Z,13.83
2019-03-30T14:39:05.394Z,13.95
2019-03-30T14:41:39.113Z,13.35
2019-03-30T14:44:11.601Z,13.15
2019-03-30T14:46:43.964Z,14.63
2019-03-30T14:49:16.745Z,13.62
2019-03-30T14:51:48.795Z,13.45
2019-03-30T14:54:21.142Z,13.78
2019-03-30T14:56:53.696Z,12.55
2019-03-30T14:59:25.965Z,13.80
2019-03-30T15:01:58.134Z,13.58
2019-03-30T15:04:30.478Z,12.28
2019-03-30T15:07:02.485Z,14.18
2019-03-30T15:09:34.429Z,13.80
2019-03-30T15:12:06.765Z,13.62
2019-03-30T15:14:38.819Z,12.33
2019-03-30T15:17:10.791Z,13.10
2019-03-30T15:19:43.133Z,13.88
2019-03-30T15:22:15.197Z,13.22
2019-03-30T15:24:47.227Z,13.18
2019-03-30T15:27:19.224Z,13.93
2019-03-30T15:29:51.274Z,13.90
2019-03-30T15:32:23.519Z,12.50
2019-03-30T15:34:58.201Z,12.93
2019-03-30T15:37:29.392Z,12.63
2019-03-30T15:40:01.741Z,12.98
2019-03-30T15:42:33.807Z,12.68
2019-03-30T15:45:07.025Z,13.68
2019-03-30T15:47:39.286Z,13.00
2019-03-30T15:50:12.632Z,13.18
2019-03-30T15:52:44.929Z,12.85
2019-03-30T15:55:17.241Z,12.82
2019-03-30T15:57:49.668Z,12.70
2019-03-30T16:00:22.159Z,12.55
2019-03-30T16:02:54.343Z,13.32
2019-03-30T16:05:26.601Z,12.73
2019-03-30T16:07:58.665Z,13.50
2019-03-30T16:10:31.174Z,13.88
2019-03-30T16:13:03.284Z,13.70
2019-03-30T16:15:35.485Z,14.05
2019-03-30T16:18:07.638Z,13.93
2019-03-30T16:20:40.398Z,14.45
2019-03-30T16:23:13.022Z,13.50
2019-03-30T16:25:46.081Z,13.48
2019-03-30T16:28:18.225Z,13.08
2019-03-30T16:30:50.714Z,13.15
2019-03-30T16:33:22.835Z,12.98
2019-03-30T16:35:54.841Z,12.07
2019-03-30T16:38:26.991Z,12.60
2019-03-30T16:40:59.337Z,12.23
2019-03-30T16:43:31.464Z,11.35
2019-03-30T16:46:03.664Z,13.28
2019-03-30T16:48:35.777Z,13.30
2019-03-30T16:51:07.849Z,12.70
2019-03-30T16:53:41.331Z,12.45
2019-03-30T16:56:13.522Z,11.97
2019-03-30T16:58:45.566Z,12.75
2019-03-30T17:01:17.989Z,13.32
2019-03-30T17:03:49.959Z,13.13
2019-03-30T17:06:21.996Z,12.97
2019-03-30T17:08:55.456Z,13.00
2019-03-30T17:11:28.737Z,11.10
2019-03-30T17:14:00.830Z,10.80
2019-03-30T17:16:32.845Z,10.00
2019-03-30T17:19:05.427Z,10.73
2019-03-30T17:21:37.522Z,11.00
2019-03-30T17:24:09.687Z,9.40
2019-03-30T17:26:41.812Z,10.23
2019-03-30T17:29:14.074Z,9.77
2019-03-30T17:31:46.152Z,9.23
2019-03-30T17:34:18.559Z,11.03
2019-03-30T17:36:50.650Z,10.23
2019-03-30T17:39:23.015Z,8.87
2019-03-30T17:41:55.130Z,9.70
2019-03-30T17:44:27.475Z,9.33
2019-03-30T17:46:59.857Z,8.40
2019-03-30T17:49:32.322Z,7.83
2019-03-30T17:52:04.469Z,9.10
2019-03-30T17:54:39.682Z,7.73
2019-03-30T17:57:10.309Z,8.77
2019-03-30T17:59:42.672Z,8.63
2019-03-30T18:02:14.737Z,9.20
2019-03-30T18:04:47.490Z,9.17
2019-03-30T18:07:19.840Z,8.80
2019-03-30T18:09:51.877Z,8.60
2019-03-30T18:12:23.867Z,8.80
2019-03-30T18:14:55.914Z,7.90
2019-03-30T18:17:28.896Z,8.30
2019-03-30T18:20:00.865Z,9.17
2019-03-30T18:22:34.063Z,9.40
2019-03-30T18:25:07.311Z,10.03
2019-03-30T18:27:39.401Z,8.67
2019-03-30T18:30:12.467Z,9.87
2019-03-30T18:32:45.184Z,9.77
2019-03-30T18:35:17.430Z,9.10
2019-03-30T18:37:50.262Z,9.17
2019-03-30T18:40:33.132Z,10.07
2019-03-30T18:43:06.363Z,9.97
2019-03-30T18:45:38.491Z,9.80
2019-03-30T18:48:18.345Z,9.67
2019-03-30T18:50:50.931Z,9.97
2019-03-30T18:53:23.811Z,9.40
2019-03-30T18:55:55.900Z,10.73
2019-03-30T18:58:41.005Z,10.27
2019-03-30T19:01:02.492Z,10.30
2019-03-30T19:03:34.531Z,10.80
2019-03-30T19:06:06.804Z,9.60
2019-03-30T19:08:38.883Z,10.40
2019-03-30T19:11:11.028Z,9.83
2019-03-30T19:13:43.508Z,10.10
2019-03-30T19:16:16.692Z,10.80
2019-03-30T19:18:48.917Z,9.67
2019-03-30T19:21:21.175Z,10.83
2019-03-30T19:23:53.259Z,10.83
2019-03-30T19:26:25.330Z,12.13
2019-03-30T19:28:57.348Z,11.97
2019-03-30T19:31:29.423Z,10.70
2019-03-30T19:34:01.394Z,10.07
2019-03-30T19:36:33.453Z,9.67
2019-03-30T19:39:08.877Z,9.43
2019-03-30T19:41:40.909Z,9.07
2019-03-30T19:44:13.063Z,9.93
2019-03-30T19:46:45.128Z,10.07
2019-03-30T19:49:17.614Z,11.10
2019-03-30T19:51:49.895Z,11.10
2019-03-30T19:54:22.233Z,10.30
2019-03-30T19:56:54.385Z,9.50
2019-03-30T19:59:26.366Z,9.70
2019-03-30T20:01:58.483Z,8.93
2019-03-30T20:04:31.022Z,9.73
2019-03-30T20:07:03.419Z,8.10
2019-03-30T20:09:35.645Z,8.30
2019-03-30T20:12:07.804Z,8.83
2019-03-30T20:14:40.103Z,8.97
2019-03-30T20:17:12.380Z,9.20
2019-03-30T20:19:44.320Z,9.43
2019-03-30T20:22:16.293Z,8.37
2019-03-30T20:24:48.327Z,8.60
2019-03-30T20:27:20.281Z,8.63
2019-03-30T20:29:52.313Z,9.93
2019-03-30T20:32:24.936Z,10.27
2019-03-30T20:34:56.904Z,10.10
2019-03-30T20:37:28.861Z,11.13
2019-03-30T20:40:00.808Z,10.17
2019-03-30T20:42:32.985Z,10.27
2019-03-30T20:45:06.685Z,10.90
2019-03-30T20:47:39.745Z,9.63
2019-03-30T20:50:12.570Z,9.20
2019-03-30T20:52:44.628Z,9.93
2019-03-30T20:55:16.629Z,9.93
2019-03-30T20:57:48.841Z,9.27
2019-03-30T21:00:21.649Z,9.03
2019-03-30T21:02:53.617Z,9.07
2019-03-30T21:05:27.402Z,9.13
2019-03-30T21:07:59.428Z,9.93
2019-03-30T21:10:31.739Z,9.90
2019-03-30T21:13:03.778Z,9.30
2019-03-30T21:15:35.795Z,9.40
2019-03-30T21:18:07.905Z,9.10
2019-03-30T21:20:39.934Z,8.93
2019-03-30T21:23:12.389Z,10.00
2019-03-30T21:25:44.597Z,8.47
2019-03-30T21:28:16.903Z,8.87
2019-03-30T21:30:48.905Z,9.40
2019-03-30T21:33:20.966Z,12.13
2019-03-30T21:35:53.038Z,9.83
2019-03-30T21:38:25.281Z,9.23
2019-03-30T21:40:58.500Z,9.67
2019-03-30T21:43:30.855Z,8.67
2019-03-30T21:46:02.798Z,9.20
2019-03-30T21:48:34.861Z,8.93
2019-03-30T21:51:07.243Z,7.73
2019-03-30T21:53:39.278Z,7.97
2019-03-30T21:56:11.236Z,7.90
2019-03-30T21:58:43.460Z,8.30
2019-03-30T22:01:15.587Z,9.63
2019-03-30T22:03:47.798Z,9.87
2019-03-30T22:06:20.565Z,9.37
2019-03-30T22:08:54.003Z,8.27
2019-03-30T22:11:25.931Z,8.63
2019-03-30T22:13:58.175Z,7.50
2019-03-30T22:16:30.126Z,7.37
2019-03-30T22:19:02.269Z,7.80
2019-03-30T22:21:34.455Z,7.80
2019-03-30T22:24:06.656Z,8.03
2019-03-30T22:26:38.998Z,8.10
2019-03-30T22:29:11.138Z,9.00
2019-03-30T22:31:43.201Z,8.60
2019-03-30T22:34:15.221Z,8.10
2019-03-30T22:36:47.192Z,8.50
2019-03-30T22:39:19.134Z,9.13
2019-03-30T22:41:51.080Z,9.07
2019-03-30T22:44:23.099Z,8.57
2019-03-30T22:46:55.124Z,9.47
2019-03-30T22:49:27.179Z,10.30
2019-03-30T22:51:59.237Z,9.40
2019-03-30T22:54:31.301Z,9.53
2019-03-30T22:57:03.276Z,9.10
2019-03-30T22:59:35.205Z,9.13
2019-03-30T23:02:07.647Z,8.37
2019-03-30T23:04:39.953Z,8.10
2019-03-30T23:07:11.902Z,8.20
2019-03-30T23:09:44.720Z,8.70
2019-03-30T23:12:17.030Z,8.57
2019-03-30T23:14:50.696Z,8.10
2019-03-30T23:17:22.752Z,8.23
2019-03-30T23:19:55.784Z,8.40
2019-03-30T23:22:27.718Z,8.50
2019-03-30T23:24:59.807Z,9.00
2019-03-30T23:27:31.760Z,8.33
2019-03-30T23:30:05.475Z,8.87
2019-03-30T23:32:37.499Z,9.17
2019-03-30T23:35:10.015Z,9.97
2019-03-30T23:37:42.000Z,10.33
2019-03-30T23:40:14.491Z,9.77
2019-03-30T23:42:46.632Z,10.03
2019-03-30T23:45:18.750Z,10.10
2019-03-30T23:47:50.787Z,9.17
2019-03-30T23:50:22.819Z,8.97
2019-03-30T23:52:54.967Z,8.27
2019-03-30T23:55:27.069Z,9.40
2019-03-30T23:57:59.018Z,9.03
